Time;durP1;ratioP1;P1;durP2;ratioP2;P2;SDS_P1;SDS_P2;PMS_P1;PMS_P2;Temp;Humidity;BMP_temperature;BMP_pressure;BME280_temperature;BME280_humidity;BME280_pressure;Samples;Min_cycle;Max_cycle;Signal;HPM_P1;HPM_P2
2021/05/21 00:00:33;;;;;;;6.55;3.28;;;12.20;99.90;;;;;;3533926;40;20046;-61
2021/05/21 00:03:01;;;;;;;4.88;3.10;;;12.20;99.90;;;;;;3535642;40;20557;-61
2021/05/21 00:05:27;;;;;;;5.60;3.28;;;12.20;99.90;;;;;;3537550;40;20026;-61
2021/05/21 00:07:53;;;;;;;5.57;2.88;;;12.20;99.90;;;;;;3539202;40;20060;-61
2021/05/21 00:10:18;;;;;;;7.18;3.13;;;12.20;99.90;;;;;;3540521;40;20116;-61
2021/05/21 00:12:44;;;;;;;7.65;3.10;;;12.20;99.90;;;;;;3539449;40;20049;-61
2021/05/21 00:15:11;;;;;;;4.68;2.97;;;12.20;99.90;;;;;;3536227;40;20063;-61
2021/05/21 00:17:36;;;;;;;5.00;3.40;;;12.30;99.90;;;;;;3536206;40;20064;-61
2021/05/21 00:20:04;;;;;;;5.88;3.35;;;12.20;99.90;;;;;;3537277;40;20029;-61
2021/05/21 00:22:29;;;;;;;5.20;3.28;;;12.20;99.90;;;;;;3539518;40;20128;-61
2021/05/21 00:24:55;;;;;;;6.22;3.55;;;12.20;99.90;;;;;;3539414;40;20125;-61
2021/05/21 00:27:21;;;;;;;4.80;3.45;;;12.20;99.90;;;;;;3535817;40;20578;-61
2021/05/21 00:29:47;;;;;;;4.05;3.40;;;12.20;99.90;;;;;;3536362;40;20147;-61
2021/05/21 00:32:13;;;;;;;6.93;3.90;;;12.20;99.90;;;;;;3534894;40;20050;-61
2021/05/21 00:34:38;;;;;;;4.28;3.47;;;12.20;99.90;;;;;;3532964;40;20105;-61
2021/05/21 00:37:04;;;;;;;6.90;3.58;;;12.20;99.90;;;;;;3532821;40;20034;-61
2021/05/21 00:39:30;;;;;;;5.75;3.40;;;12.10;99.90;;;;;;3535896;40;20057;-61
2021/05/21 00:41:56;;;;;;;5.47;3.53;;;12.10;99.90;;;;;;3528806;40;20085;-61
2021/05/21 00:44:22;;;;;;;6.70;3.40;;;12.00;99.90;;;;;;3539917;40;20084;-61
2021/05/21 00:46:48;;;;;;;4.05;3.25;;;12.00;99.90;;;;;;3541367;40;20038;-61
2021/05/21 00:49:19;;;;;;;8.20;3.13;;;12.00;99.90;;;;;;3540465;40;20054;-61
2021/05/21 00:51:46;;;;;;;6.05;3.40;;;12.10;99.90;;;;;;3538904;40;20423;-61
2021/05/21 00:54:16;;;;;;;5.03;2.85;;;12.10;99.90;;;;;;3536403;40;20039;-61
2021/05/21 00:56:42;;;;;;;3.83;3.03;;;12.10;99.90;;;;;;3534827;40;20050;-61
2021/05/21 00:59:08;;;;;;;6.72;3.10;;;12.00;99.90;;;;;;3533590;40;20082;-61
2021/05/21 01:01:35;;;;;;;5.10;2.88;;;12.10;99.90;;;;;;3532858;40;20451;-61
2021/05/21 01:04:00;;;;;;;3.90;2.92;;;12.10;99.90;;;;;;3535190;40;20023;-61
2021/05/21 01:06:26;;;;;;;4.32;3.33;;;12.10;99.90;;;;;;3537330;40;20045;-61
2021/05/21 01:08:53;;;;;;;7.60;3.25;;;12.10;99.90;;;;;;3537714;40;20053;-61
2021/05/21 01:11:20;;;;;;;7.30;3.10;;;12.10;99.90;;;;;;3539889;40;20030;-61
2021/05/21 01:13:46;;;;;;;4.50;2.95;;;12.00;99.90;;;;;;3540723;40;20038;-61
2021/05/21 01:16:11;;;;;;;8.13;3.40;;;12.00;99.90;;;;;;3539375;40;20042;-61
2021/05/21 01:18:37;;;;;;;5.38;3.10;;;12.00;99.90;;;;;;3536920;40;20046;-61
2021/05/21 01:21:04;;;;;;;8.98;3.90;;;11.90;99.90;;;;;;3534447;40;20065;-61
2021/05/21 01:23:30;;;;;;;6.78;3.22;;;11.90;99.90;;;;;;3532335;40;20102;-61
2021/05/21 01:25:55;;;;;;;5.57;3.17;;;11.90;99.90;;;;;;3531352;40;20043;-61
2021/05/21 01:28:21;;;;;;;4.47;3.25;;;12.00;99.90;;;;;;3533465;40;20079;-61
2021/05/21 01:30:48;;;;;;;3.70;3.00;;;12.00;99.90;;;;;;3534339;40;20410;-61
2021/05/21 01:33:14;;;;;;;3.25;2.80;;;12.10;99.90;;;;;;3536437;40;20289;-61
2021/05/21 01:35:41;;;;;;;7.22;3.10;;;12.10;99.90;;;;;;3538956;40;20057;-61
2021/05/21 01:38:07;;;;;;;5.78;3.13;;;12.10;99.90;;;;;;3540490;40;20046;-61
2021/05/21 01:40:34;;;;;;;4.95;2.97;;;12.10;99.90;;;;;;3535624;40;20037;-61
2021/05/21 01:43:01;;;;;;;4.18;3.00;;;12.00;99.90;;;;;;3534968;40;20050;-61
2021/05/21 01:45:27;;;;;;;7.53;3.40;;;12.00;99.90;;;;;;3536678;40;20155;-61
2021/05/21 01:47:53;;;;;;;6.05;3.42;;;12.10;99.90;;;;;;3538662;40;20061;-61
2021/05/21 01:50:19;;;;;;;3.80;2.92;;;12.00;99.90;;;;;;3539839;40;20026;-61
2021/05/21 01:52:45;;;;;;;3.67;2.60;;;11.90;99.90;;;;;;3539153;40;20073;-61
2021/05/21 01:55:12;;;;;;;6.95;3.40;;;12.00;99.90;;;;;;3536579;40;20119;-61
2021/05/21 01:57:39;;;;;;;8.73;3.80;;;12.00;99.90;;;;;;3535350;40;20254;-61
2021/05/21 02:00:07;;;;;;;4.95;3.53;;;11.90;99.90;;;;;;3532710;40;20377;-61
2021/05/21 02:02:40;;;;;;;3.90;3.33;;;11.90;99.90;;;;;;3532112;40;20124;-68
2021/05/21 02:05:07;;;;;;;5.50;3.35;;;11.90;99.90;;;;;;3535129;40;20051;-68
2021/05/21 02:07:34;;;;;;;9.00;3.65;;;12.00;99.90;;;;;;3536480;40;20124;-68
2021/05/21 02:10:05;;;;;;;6.47;3.22;;;12.00;99.90;;;;;;3537769;40;20035;-68
2021/05/21 02:12:32;;;;;;;7.95;3.58;;;12.00;99.90;;;;;;3539238;40;20097;-68
2021/05/21 02:15:03;;;;;;;7.78;3.47;;;12.00;99.90;;;;;;3531709;40;20039;-68
2021/05/21 02:17:29;;;;;;;4.63;3.20;;;11.80;99.90;;;;;;3538998;40;20491;-68
2021/05/21 02:20:01;;;;;;;5.97;3.45;;;11.80;99.90;;;;;;3536382;40;20039;-68
2021/05/21 02:22:29;;;;;;;4.85;3.40;;;11.80;99.90;;;;;;3537413;40;20031;-67
2021/05/21 02:24:56;;;;;;;5.57;3.03;;;11.80;99.90;;;;;;3537424;40;20047;-68
2021/05/21 02:27:23;;;;;;;4.53;3.30;;;11.70;99.90;;;;;;3540491;40;20052;-68
2021/05/21 02:29:49;;;;;;;7.50;3.75;;;11.80;99.90;;;;;;3536722;40;20113;-68
2021/05/21 02:32:15;;;;;;;5.00;3.60;;;11.80;99.90;;;;;;3534055;40;20059;-68
2021/05/21 02:34:41;;;;;;;7.65;3.67;;;11.70;99.90;;;;;;3536992;40;20038;-68
2021/05/21 02:37:07;;;;;;;5.53;3.67;;;11.80;99.90;;;;;;3537922;40;20035;-68
2021/05/21 02:39:33;;;;;;;5.88;3.67;;;11.70;99.90;;;;;;3541094;40;20088;-68
2021/05/21 02:41:59;;;;;;;6.80;4.07;;;11.80;99.90;;;;;;3540865;40;20821;-68
2021/05/21 02:44:24;;;;;;;6.60;3.60;;;11.80;99.90;;;;;;3538576;40;20058;-68
2021/05/21 02:46:50;;;;;;;8.13;4.40;;;11.80;99.90;;;;;;3532944;40;20061;-68
2021/05/21 02:49:19;;;;;;;7.13;4.20;;;11.80;99.90;;;;;;3536255;40;20451;-68
2021/05/21 02:51:50;;;;;;;9.73;3.88;;;11.80;99.90;;;;;;3538186;40;20097;-68
2021/05/21 02:54:16;;;;;;;4.72;4.00;;;11.90;99.90;;;;;;3536075;40;20046;-68
2021/05/21 02:56:41;;;;;;;5.22;3.45;;;11.90;99.90;;;;;;3538869;40;20313;-68
2021/05/21 02:59:07;;;;;;;7.32;3.90;;;11.80;99.90;;;;;;3537286;40;20043;-69
2021/05/21 03:01:33;;;;;;;6.65;4.15;;;12.00;99.90;;;;;;3537064;40;20026;-68
2021/05/21 03:03:59;;;;;;;10.55;4.22;;;11.20;99.90;;;;;;3538671;40;20444;-69
2021/05/21 03:06:25;;;;;;;7.07;3.67;;;11.70;99.90;;;;;;3538779;40;20038;-68
2021/05/21 03:08:51;;;;;;;12.10;4.45;;;11.30;99.90;;;;;;3539753;40;20045;-68
2021/05/21 03:11:17;;;;;;;5.32;3.78;;;11.70;99.90;;;;;;3540987;40;20348;-68
2021/05/21 03:13:43;;;;;;;8.57;3.60;;;;;;;;;;3539965;40;20074;-68
2021/05/21 03:16:09;;;;;;;6.97;3.78;;;;;;;;;;3541794;40;20050;-68
2021/05/21 03:18:35;;;;;;;6.82;4.10;;;11.50;99.90;;;;;;3541651;40;20199;-68
2021/05/21 03:21:01;;;;;;;8.75;4.32;;;;;;;;;;3539887;40;20593;-68
2021/05/21 03:23:27;;;;;;;7.65;4.05;;;11.70;99.90;;;;;;3536156;40;20416;-68
2021/05/21 03:25:53;;;;;;;7.05;4.78;;;;;;;;;;3537828;40;20051;-68
2021/05/21 03:28:19;;;;;;;10.52;4.53;;;;;;;;;;3540284;40;20297;-68
2021/05/21 03:30:45;;;;;;;5.35;3.88;;;;;;;;;;3531519;40;20924;-68
2021/05/21 03:33:12;;;;;;;7.28;4.30;;;;;;;;;;3535544;40;20034;-68
2021/05/21 03:35:38;;;;;;;5.72;4.28;;;;;;;;;;3535987;40;20034;-68
2021/05/21 03:38:08;;;;;;;8.93;4.28;;;;;;;;;;3537638;40;20441;-68
2021/05/21 03:40:35;;;;;;;7.90;4.43;;;11.60;99.90;;;;;;3536456;40;20117;-68
2021/05/21 03:43:01;;;;;;;6.50;4.30;;;11.50;99.90;;;;;;3538835;40;20086;-68
2021/05/21 03:45:27;;;;;;;5.55;4.38;;;;;;;;;;3540193;40;20045;-68
2021/05/21 03:47:53;;;;;;;5.72;4.15;;;11.60;99.90;;;;;;3536055;40;20456;-68
2021/05/21 03:50:20;;;;;;;6.22;4.38;;;11.50;99.90;;;;;;3537023;40;20093;-68
2021/05/21 03:52:47;;;;;;;5.55;4.43;;;11.40;99.90;;;;;;3539588;40;20030;-68
2021/05/21 03:55:13;;;;;;;6.72;4.22;;;11.30;99.90;;;;;;3533924;40;20097;-68
2021/05/21 03:57:39;;;;;;;5.75;4.43;;;11.20;99.90;;;;;;3536943;40;20066;-68
2021/05/21 04:00:08;;;;;;;6.68;4.55;;;11.30;99.90;;;;;;3533932;40;20038;-68
2021/05/21 04:02:34;;;;;;;7.72;4.43;;;11.30;99.90;;;;;;3529774;40;20049;-68
2021/05/21 04:05:00;;;;;;;7.88;4.60;;;11.20;99.90;;;;;;3537704;40;20026;-68
2021/05/21 04:07:25;;;;;;;9.85;4.63;;;10.60;99.90;;;;;;3533706;40;20027;-68
2021/05/21 04:09:51;;;;;;;9.02;4.75;;;11.00;99.90;;;;;;3540445;40;20313;-68
2021/05/21 04:12:17;;;;;;;7.38;4.40;;;11.60;99.90;;;;;;3535786;40;20057;-68
2021/05/21 04:14:43;;;;;;;8.00;4.50;;;11.50;99.90;;;;;;3538151;40;20053;-68
2021/05/21 04:17:08;;;;;;;6.93;4.72;;;11.40;99.90;;;;;;3538512;40;20054;-68
2021/05/21 04:19:34;;;;;;;11.65;4.63;;;11.30;99.90;;;;;;3536311;40;20511;-68
2021/05/21 04:21:59;;;;;;;11.32;5.05;;;11.80;99.90;;;;;;3535997;40;20100;-68
2021/05/21 04:24:25;;;;;;;6.15;4.65;;;11.70;99.90;;;;;;3534300;40;20613;-68
2021/05/21 04:26:51;;;;;;;6.30;4.30;;;12.20;99.90;;;;;;3537686;40;20042;-68
2021/05/21 04:29:16;;;;;;;6.95;3.70;;;12.20;99.90;;;;;;3534615;40;20320;-68
2021/05/21 04:31:43;;;;;;;11.13;3.97;;;;;;;;;;3540117;40;20042;-68
2021/05/21 04:34:08;;;;;;;6.43;3.97;;;11.90;99.90;;;;;;3541125;40;20105;-68
2021/05/21 04:36:34;;;;;;;6.93;3.42;;;11.70;99.90;;;;;;3538860;40;20391;-68
2021/05/21 04:39:00;;;;;;;6.50;3.97;;;11.80;99.90;;;;;;3537315;40;20098;-68
2021/05/21 04:41:25;;;;;;;8.32;4.10;;;11.70;99.90;;;;;;3537821;40;20039;-68
2021/05/21 04:43:53;;;;;;;8.27;3.75;;;11.70;99.90;;;;;;3539788;40;20050;-68
2021/05/21 04:46:19;;;;;;;14.07;3.92;;;11.80;99.90;;;;;;3534455;40;20049;-68
2021/05/21 04:48:45;;;;;;;4.93;3.30;;;11.90;99.90;;;;;;3534107;40;20055;-68
2021/05/21 04:51:11;;;;;;;5.63;3.40;;;12.00;99.90;;;;;;3537035;40;20046;-68
2021/05/21 04:53:37;;;;;;;6.28;3.67;;;12.00;99.90;;;;;;3537579;40;20046;-68
2021/05/21 04:56:03;;;;;;;4.80;3.30;;;12.10;99.90;;;;;;3539665;40;20030;-68
2021/05/21 04:58:29;;;;;;;5.47;3.42;;;12.10;99.90;;;;;;3539199;40;20116;-68
2021/05/21 05:00:54;;;;;;;7.80;2.92;;;12.30;99.90;;;;;;3535509;40;20027;-68
2021/05/21 05:03:21;;;;;;;7.45;3.40;;;12.40;99.90;;;;;;3537541;40;20042;-68
2021/05/21 05:05:48;;;;;;;6.90;3.08;;;12.40;99.90;;;;;;3537013;40;20042;-68
2021/05/21 05:08:15;;;;;;;5.85;3.03;;;12.50;99.90;;;;;;3536337;40;20050;-68
2021/05/21 05:10:42;;;;;;;5.03;2.67;;;12.60;99.90;;;;;;3536162;40;20065;-68
2021/05/21 05:13:08;;;;;;;4.15;2.97;;;12.70;99.90;;;;;;3540586;40;20462;-68
2021/05/21 05:15:35;;;;;;;6.88;2.70;;;12.80;99.90;;;;;;3538844;40;20042;-68
2021/05/21 05:18:01;;;;;;;5.50;3.13;;;12.90;99.90;;;;;;3538063;40;20037;-68
2021/05/21 05:20:27;;;;;;;5.50;3.00;;;12.80;99.90;;;;;;3538782;40;20047;-67
2021/05/21 05:22:54;;;;;;;6.95;2.90;;;12.80;99.90;;;;;;3541187;40;20138;-68
2021/05/21 05:25:20;;;;;;;4.47;3.00;;;12.80;99.90;;;;;;3538693;40;20043;-68
2021/05/21 05:27:47;;;;;;;4.00;2.70;;;11.70;99.90;;;;;;3533847;40;20144;-68
2021/05/21 05:30:14;;;;;;;8.13;2.80;;;;;;;;;;3533840;40;20038;-68
2021/05/21 05:32:39;;;;;;;3.92;2.63;;;12.80;99.90;;;;;;3539357;40;20132;-67
2021/05/21 05:35:06;;;;;;;3.92;2.33;;;13.00;99.90;;;;;;3539784;40;20027;-68
2021/05/21 05:37:32;;;;;;;8.85;2.80;;;;;;;;;;3534071;40;20596;-68
2021/05/21 05:39:58;;;;;;;4.18;2.10;;;13.30;99.90;;;;;;3539069;40;20097;-68
2021/05/21 05:42:24;;;;;;;5.22;2.35;;;12.90;99.90;;;;;;3538098;40;20078;-68
2021/05/21 05:44:50;;;;;;;4.38;2.60;;;13.60;99.90;;;;;;3538077;40;20031;-68
2021/05/21 05:47:15;;;;;;;3.60;2.10;;;13.50;99.90;;;;;;3536333;40;20713;-59
2021/05/21 05:49:41;;;;;;;3.63;2.00;;;13.20;99.90;;;;;;3536207;40;20065;-59
2021/05/21 05:52:08;;;;;;;3.33;2.10;;;13.80;99.90;;;;;;3536305;40;20067;-60
2021/05/21 05:54:34;;;;;;;4.75;2.20;;;14.00;99.90;;;;;;3537200;40;20101;-60
2021/05/21 05:57:00;;;;;;;8.88;2.15;;;14.20;99.90;;;;;;3537390;40;20031;-60
2021/05/21 05:59:27;;;;;;;4.85;2.13;;;14.30;99.90;;;;;;3535539;40;20054;-60
2021/05/21 06:01:53;;;;;;;3.00;2.05;;;14.20;99.90;;;;;;3539854;40;20026;-60
2021/05/21 06:04:18;;;;;;;2.58;1.90;;;14.20;99.90;;;;;;3535373;40;20062;-60
2021/05/21 06:06:46;;;;;;;2.30;1.90;;;14.40;99.90;;;;;;3537437;40;20171;-60
2021/05/21 06:09:12;;;;;;;5.35;2.45;;;14.40;99.90;;;;;;3537477;40;20078;-60
2021/05/21 06:11:37;;;;;;;2.85;1.88;;;14.50;99.90;;;;;;3538066;40;20078;-60
2021/05/21 06:14:04;;;;;;;2.95;2.00;;;14.60;99.90;;;;;;3534166;40;20316;-60
2021/05/21 06:16:30;;;;;;;7.97;2.25;;;14.80;99.90;;;;;;3547918;40;20049;-60
2021/05/21 06:18:57;;;;;;;2.88;1.58;;;14.90;99.90;;;;;;3537691;40;20035;-60
2021/05/21 06:21:23;;;;;;;7.03;2.10;;;15.10;99.90;;;;;;3538649;40;20137;-60
2021/05/21 06:23:49;;;;;;;4.97;1.80;;;15.20;99.90;;;;;;3540010;40;20054;-60
2021/05/21 06:28:51;;;;;;;3.22;2.00;;;15.20;99.90;;;;;;3540364;40;20043;-60
2021/05/21 06:31:18;;;;;;;4.03;1.80;;;15.10;99.90;;;;;;3536654;40;20038;-60
2021/05/21 06:33:44;;;;;;;3.85;1.55;;;15.20;99.90;;;;;;3540590;40;20137;-60
2021/05/21 06:36:10;;;;;;;3.35;1.75;;;15.30;99.90;;;;;;3540628;40;20045;-59
2021/05/21 06:38:37;;;;;;;8.07;2.05;;;15.30;99.90;;;;;;3543170;40;20038;-60
2021/05/21 06:41:04;;;;;;;2.13;1.50;;;15.40;99.90;;;;;;3541336;40;20126;-60
2021/05/21 06:43:31;;;;;;;4.18;1.70;;;15.50;99.90;;;;;;3538992;40;20443;-60
2021/05/21 06:45:57;;;;;;;3.33;1.48;;;15.50;99.90;;;;;;3538978;40;20078;-60
2021/05/21 06:48:26;;;;;;;4.10;1.70;;;15.50;99.90;;;;;;3537727;40;20647;-60
2021/05/21 06:50:52;;;;;;;1.80;1.30;;;15.60;99.90;;;;;;3540402;40;20031;-60
2021/05/21 06:53:19;;;;;;;5.35;1.58;;;15.70;99.90;;;;;;3541926;40;20764;-60
2021/05/21 06:55:45;;;;;;;2.03;1.45;;;15.80;99.90;;;;;;3537398;40;20038;-60
2021/05/21 06:58:11;;;;;;;1.75;1.50;;;15.80;99.90;;;;;;3537952;40;20035;-60
2021/05/21 07:00:41;;;;;;;6.68;2.10;;;15.80;99.90;;;;;;3537203;40;20094;-59
2021/05/21 07:03:07;;;;;;;5.32;1.50;;;15.80;99.80;;;;;;3536103;40;20031;-60
2021/05/21 07:05:33;;;;;;;8.65;1.52;;;15.80;99.90;;;;;;3533441;40;20027;-59
2021/05/21 07:07:59;;;;;;;3.53;1.60;;;16.00;99.90;;;;;;3536736;40;20042;-60
2021/05/21 07:10:24;;;;;;;4.25;1.73;;;16.10;99.90;;;;;;3539336;40;20050;-60
2021/05/21 07:12:50;;;;;;;1.92;1.45;;;16.20;99.60;;;;;;3538425;40;20042;-61
2021/05/21 07:15:16;;;;;;;5.05;1.60;;;16.20;99.90;;;;;;3536868;40;20047;-61
2021/05/21 07:17:41;;;;;;;2.63;1.60;;;16.00;99.90;;;;;;3541142;40;20132;-61
2021/05/21 07:20:11;;;;;;;7.90;2.13;;;15.90;99.60;;;;;;3536417;40;20031;-61
2021/05/21 07:22:38;;;;;;;4.50;2.10;;;15.90;99.80;;;;;;3535832;40;20051;-61
2021/05/21 07:25:04;;;;;;;9.18;1.58;;;16.00;99.90;;;;;;3537651;40;20042;-60
2021/05/21 07:27:30;;;;;;;3.10;1.63;;;15.90;99.90;;;;;;3539996;40;20035;-61
2021/05/21 07:29:56;;;;;;;3.67;1.52;;;16.20;99.50;;;;;;3534967;40;20027;-60
2021/05/21 07:32:21;;;;;;;7.75;1.83;;;16.00;99.20;;;;;;3540648;40;20035;-61
2021/05/21 07:34:47;;;;;;;2.00;1.40;;;16.00;99.50;;;;;;3536297;40;20144;-60
2021/05/21 07:37:13;;;;;;;7.63;1.50;;;16.10;99.90;;;;;;3535947;40;20397;-60
2021/05/21 07:39:39;;;;;;;6.85;1.60;;;16.30;98.70;;;;;;3534670;40;20396;-60
2021/05/21 07:42:05;;;;;;;2.70;1.30;;;16.30;98.50;;;;;;3535584;40;20045;-60
2021/05/21 07:44:31;;;;;;;6.20;2.15;;;16.40;98.40;;;;;;3537363;40;20043;-60
2021/05/21 07:46:56;;;;;;;2.78;1.42;;;16.50;98.70;;;;;;3537183;40;20046;-61
2021/05/21 07:49:24;;;;;;;2.45;1.30;;;16.60;98.70;;;;;;3538709;40;20038;-60
2021/05/21 07:51:51;;;;;;;2.13;1.30;;;16.80;98.40;;;;;;3538199;40;20071;-61
2021/05/21 07:54:18;;;;;;;5.05;1.20;;;17.10;98.30;;;;;;3541908;40;20034;-59
2021/05/21 07:56:44;;;;;;;4.22;1.35;;;17.30;97.20;;;;;;3531851;40;20047;-61
2021/05/21 07:59:11;;;;;;;2.53;1.17;;;17.20;97.90;;;;;;3537268;40;20462;-59
2021/05/21 08:01:38;;;;;;;9.25;1.38;;;17.30;96.90;;;;;;3535610;40;20038;-60
2021/05/21 08:04:04;;;;;;;5.80;1.23;;;17.60;95.90;;;;;;3534496;40;20058;-60
2021/05/21 08:06:30;;;;;;;17.65;9.30;;;17.80;94.90;;;;;;3535522;40;20035;-60
2021/05/21 08:08:55;;;;;;;1.13;1.00;;;17.80;95.80;;;;;;3532651;40;20027;-60
2021/05/21 08:11:21;;;;;;;9.52;3.05;;;18.10;95.60;;;;;;3535706;40;20086;-59
2021/05/21 08:13:47;;;;;;;4.00;1.27;;;18.30;94.70;;;;;;3535171;40;20053;-59
2021/05/21 08:16:14;;;;;;;1.50;1.15;;;18.60;94.90;;;;;;3532375;40;20042;-59
2021/05/21 08:18:40;;;;;;;4.32;0.93;;;18.60;93.70;;;;;;3531070;40;20684;-60
2021/05/21 08:21:06;;;;;;;3.67;1.10;;;19.10;94.50;;;;;;3530266;40;20053;-60
2021/05/21 08:23:31;;;;;;;7.07;1.17;;;19.10;92.70;;;;;;3534164;40;20321;-60
2021/05/21 08:25:57;;;;;;;2.58;1.00;;;19.10;93.10;;;;;;3536882;40;20031;-59
2021/05/21 08:28:25;;;;;;;3.38;1.00;;;19.20;93.00;;;;;;3536812;40;20064;-59
2021/05/21 08:30:52;;;;;;;6.07;0.95;;;19.30;93.30;;;;;;3537914;40;20030;-60
2021/05/21 08:33:19;;;;;;;2.65;0.93;;;19.00;91.40;;;;;;3534916;40;20042;-59
2021/05/21 08:35:45;;;;;;;4.90;1.08;;;19.40;91.80;;;;;;3538833;40;20448;-59
2021/05/21 08:38:10;;;;;;;4.55;1.00;;;19.10;90.80;;;;;;3536714;40;20045;-61
2021/05/21 08:40:38;;;;;;;2.45;0.80;;;18.80;91.40;;;;;;3536083;40;20031;-61
2021/05/21 08:43:10;;;;;;;3.17;1.00;;;19.10;91.60;;;;;;3535068;40;20523;-60
2021/05/21 08:45:36;;;;;;;3.08;1.38;;;19.30;89.60;;;;;;3529600;40;20566;-60
2021/05/21 08:48:03;;;;;;;1.85;0.85;;;19.30;88.90;;;;;;3535701;40;20046;-59
2021/05/21 08:50:30;;;;;;;3.60;1.10;;;19.50;89.20;;;;;;3534679;40;20027;-60
2021/05/21 08:52:56;;;;;;;5.85;1.50;;;19.60;91.40;;;;;;3532347;40;20090;-60
2021/05/21 08:55:23;;;;;;;2.72;0.93;;;20.20;88.90;;;;;;3532414;40;20043;-60
2021/05/21 08:57:49;;;;;;;2.63;1.08;;;20.40;87.90;;;;;;3531205;40;20039;-60
2021/05/21 09:00:15;;;;;;;3.00;0.80;;;19.40;89.20;;;;;;3542475;40;20704;-59
2021/05/21 09:02:41;;;;;;;3.72;0.90;;;19.40;90.50;;;;;;3537850;40;20042;-67
2021/05/21 09:05:09;;;;;;;2.25;0.88;;;19.40;90.20;;;;;;3535825;40;20030;-67
2021/05/21 09:07:37;;;;;;;4.88;0.88;;;19.20;86.80;;;;;;3540537;40;20757;-67
2021/05/21 09:10:09;;;;;;;3.60;0.90;;;19.50;90.20;;;;;;3534057;40;20066;-59
2021/05/21 09:12:41;;;;;;;1.77;0.45;;;19.90;83.20;;;;;;3533876;40;20209;-59
2021/05/21 09:15:19;;;;;;;1.38;0.60;;;19.60;81.70;;;;;;3536216;40;20046;-59
2021/05/21 09:17:56;;;;;;;5.38;0.73;;;19.10;82.90;;;;;;3534355;40;20043;-59
2021/05/21 09:20:26;;;;;;;3.58;0.70;;;19.10;81.80;;;;;;3532822;40;20041;-59
2021/05/21 09:23:18;;;;;;;4.97;0.75;;;18.90;81.50;;;;;;3534427;40;20407;-68
2021/05/21 09:25:48;;;;;;;5.47;0.80;;;19.70;78.20;;;;;;3537629;40;20344;-67
2021/05/21 09:28:37;;;;;;;2.33;0.65;;;19.80;74.70;;;;;;3537397;40;20057;-67
2021/05/21 09:31:07;;;;;;;1.17;0.52;;;;;;;;;;3532866;40;20050;-67
2021/05/21 09:33:34;;;;;;;4.40;0.55;;;;;;;;;;3538011;40;20555;-67
2021/05/21 09:36:00;;;;;;;1.58;0.57;;;;;;;;;;3530685;40;20419;-65
2021/05/21 09:38:26;;;;;;;2.72;0.90;;;;;;;;;;3535461;40;20050;-64
2021/05/21 09:40:52;;;;;;;1.92;0.60;;;;;;;;;;3534930;40;20058;-65
2021/05/21 09:43:22;;;;;;;0.77;0.50;;;20.00;67.60;;;;;;3537378;40;20047;-65
2021/05/21 09:45:48;;;;;;;4.00;0.80;;;;;;;;;;3538615;40;20593;-65
2021/05/21 09:48:16;;;;;;;0.90;0.43;;;19.50;68.20;;;;;;3539278;40;20117;-65
2021/05/21 09:50:47;;;;;;;8.00;0.70;;;19.60;67.50;;;;;;3535888;40;20109;-65
2021/05/21 09:53:24;;;;;;;1.85;0.90;;;19.60;68.10;;;;;;3536479;40;20038;-65
2021/05/21 09:55:59;;;;;;;3.53;0.85;;;;;;;;;;3537423;40;20038;-65
2021/05/21 09:58:36;;;;;;;7.55;1.00;;;;;;;;;;3540302;40;20039;-65
2021/05/21 10:01:19;;;;;;;7.45;0.68;;;20.90;62.50;;;;;;3540358;40;20037;-66
2021/05/21 10:03:46;;;;;;;4.53;0.73;;;;;;;;;;3536634;40;20082;-65
2021/05/21 10:06:13;;;;;;;4.75;1.00;;;21.10;62.70;;;;;;3536864;40;20065;-65
2021/05/21 10:08:40;;;;;;;5.47;0.70;;;;;;;;;;3538774;40;20045;-65
2021/05/21 10:11:06;;;;;;;4.05;0.80;;;20.90;71.90;;;;;;3533473;40;20057;-65
2021/05/21 10:13:33;;;;;;;0.50;0.50;;;;;;;;;;3540379;40;20428;-65
2021/05/21 10:15:59;;;;;;;0.88;0.50;;;;;;;;;;3538422;40;20042;-65
2021/05/21 10:18:26;;;;;;;4.57;0.60;;;;;;;;;;3537587;40;20039;-65
2021/05/21 10:20:53;;;;;;;3.97;0.93;;;;;;;;;;3537702;40;20039;-65
2021/05/21 10:23:40;;;;;;;2.03;0.82;;;;;;;;;;3534956;40;20097;-65
2021/05/21 10:26:11;;;;;;;1.38;0.77;;;19.50;68.70;;;;;;3537907;40;20086;-65
2021/05/21 10:28:39;;;;;;;5.10;0.80;;;;;;;;;;3538022;40;20046;-64
2021/05/21 10:31:05;;;;;;;5.97;0.70;;;;;;;;;;3536465;40;20421;-67
2021/05/21 10:33:32;;;;;;;2.53;0.80;;;;;;;;;;3540011;40;20167;-67
2021/05/21 10:36:17;;;;;;;;;;;;;;;;;;3538331;40;20048;-67
2021/05/21 10:39:08;;;;;;;2.35;0.98;;;21.20;62.30;;;;;;3537916;40;20404;-67
2021/05/21 10:41:57;;;;;;;1.85;0.70;;;21.30;64.70;;;;;;3538960;40;20138;-67
2021/05/21 10:44:36;;;;;;;2.42;0.52;;;;;;;;;;3539183;40;20421;-68
2021/05/21 10:47:17;;;;;;;2.95;0.60;;;;;;;;;;3535809;40;20045;-67
2021/05/21 10:49:53;;;;;;;1.95;0.80;;;;;;;;;;3530692;40;20054;-67
2021/05/21 10:52:20;;;;;;;1.17;0.65;;;;;;;;;;3536017;40;20143;-67
2021/05/21 10:54:50;;;;;;;5.18;0.77;;;;;;;;;;3536335;40;20051;-67
2021/05/21 10:57:18;;;;;;;3.17;1.10;;;21.40;63.10;;;;;;3538384;40;20041;-67
2021/05/21 11:00:00;;;;;;;4.22;0.68;;;;;;;;;;3537821;40;20074;-67
2021/05/21 11:02:43;;;;;;;6.30;0.68;;;;;;;;;;3534404;40;20034;-67
2021/05/21 11:05:22;;;;;;;5.25;0.90;;;;;;;;;;3538253;40;20132;-67
2021/05/21 11:07:48;;;;;;;1.92;0.50;;;;;;;;;;3536126;40;20116;-67
2021/05/21 11:10:34;;;;;;;2.75;0.70;;;;;;;;;;3537363;40;20046;-67
2021/05/21 11:13:02;;;;;;;4.22;0.70;;;;;;;;;;3538635;40;20140;-67
2021/05/21 11:15:38;;;;;;;4.35;1.20;;;;;;;;;;3540684;40;20046;-68
2021/05/21 11:18:16;;;;;;;2.10;0.73;;;22.10;59.20;;;;;;3538659;40;20044;-68
2021/05/21 11:21:01;;;;;;;4.07;0.57;;;;;;;;;;3535462;40;20042;-68
2021/05/21 11:23:43;;;;;;;6.75;0.73;;;22.90;56.00;;;;;;3536445;40;20713;-68
2021/05/21 11:26:13;;;;;;;0.93;0.40;;;;;;;;;;3538734;40;20074;-68
2021/05/21 11:28:44;;;;;;;4.45;0.57;;;23.60;53.30;;;;;;3532887;40;20054;-68
2021/05/21 11:31:16;;;;;;;7.30;0.70;;;23.70;53.00;;;;;;3536711;40;20152;-68
2021/05/21 11:33:45;;;;;;;15.20;1.15;;;24.00;53.60;;;;;;3538644;40;20039;-67
2021/05/21 11:36:11;;;;;;;4.55;0.50;;;25.20;55.00;;;;;;3539392;40;20396;-69
2021/05/21 11:38:38;;;;;;;5.78;1.88;;;;;;;;;;3540355;40;20139;-69
2021/05/21 11:41:05;;;;;;;4.40;0.77;;;22.80;53.00;;;;;;3539431;40;20030;-68
2021/05/21 11:43:31;;;;;;;6.35;0.77;;;;;;;;;;3538178;40;20035;-68
2021/05/21 11:45:58;;;;;;;4.28;0.80;;;;;;;;;;3536777;40;20082;-68
2021/05/21 11:48:34;;;;;;;1.80;0.50;;;22.60;52.00;;;;;;3536825;40;20854;-69
2021/05/21 11:51:01;;;;;;;4.95;0.65;;;23.60;66.70;;;;;;3540096;40;20035;-68
2021/05/21 11:53:27;;;;;;;1.40;0.50;;;23.60;56.50;;;;;;3539999;40;20733;-67
2021/05/21 11:55:54;;;;;;;6.50;0.50;;;;;;;;;;3538101;40;20039;-68
2021/05/21 11:58:27;;;;;;;12.45;0.70;;;;;;;;;;3536195;40;20030;-67
2021/05/21 12:01:00;;;;;;;4.45;0.75;;;;;;;;;;3536106;40;20035;-67
2021/05/21 12:03:33;;;;;;;7.57;1.17;;;;;;;;;;3538541;40;20037;-68
2021/05/21 12:06:01;;;;;;;2.38;0.50;;;22.80;52.60;;;;;;3534682;40;20035;-68
2021/05/21 12:08:27;;;;;;;1.55;0.60;;;;;;;;;;3537904;40;20038;-68
2021/05/21 12:10:54;;;;;;;1.77;0.52;;;;;;;;;;3535683;40;20090;-68
2021/05/21 12:13:20;;;;;;;2.38;0.60;;;;;;;;;;3534878;40;20142;-68
2021/05/21 12:15:46;;;;;;;4.43;0.77;;;;;;;;;;3533410;40;20038;-68
2021/05/21 12:18:12;;;;;;;2.58;0.60;;;;;;;;;;3532572;40;20116;-67
2021/05/21 12:20:38;;;;;;;1.75;0.57;;;;;;;;;;3532953;40;20025;-68
2021/05/21 12:23:05;;;;;;;2.58;0.50;;;;;;;;;;3536070;40;20042;-68
2021/05/21 12:25:32;;;;;;;8.40;0.70;;;;;;;;;;3533404;40;20039;-68
2021/05/21 12:27:59;;;;;;;1.85;0.65;;;;;;;;;;3531978;40;20062;-67
2021/05/21 12:30:26;;;;;;;1.83;0.47;;;;;;;;;;3536714;40;20391;-68
2021/05/21 12:32:53;;;;;;;2.15;0.50;;;;;;;;;;3535312;40;20035;-68
2021/05/21 12:35:19;;;;;;;2.03;0.80;;;;;;;;;;3536152;40;20039;-68
2021/05/21 12:37:49;;;;;;;5.68;0.80;;;20.70;58.70;;;;;;3537290;40;20028;-68
2021/05/21 12:40:16;;;;;;;4.13;0.60;;;21.50;58.90;;;;;;3538811;40;20327;-68
2021/05/21 12:42:47;;;;;;;3.22;0.50;;;21.90;73.40;;;;;;3538606;40;20102;-67
2021/05/21 12:45:14;;;;;;;1.70;0.57;;;23.00;55.20;;;;;;3534031;40;20507;-68
2021/05/21 12:47:47;;;;;;;7.63;0.70;;;22.90;57.30;;;;;;3534354;40;20037;-68
2021/05/21 12:50:15;;;;;;;3.42;0.60;;;22.50;52.70;;;;;;3533322;40;20084;-68
2021/05/21 12:52:58;;;;;;;5.25;1.30;;;21.80;56.70;;;;;;3536285;40;20053;-69
2021/05/21 12:55:27;;;;;;;8.63;0.90;;;;;;;;;;3536973;40;20050;-68
2021/05/21 12:57:57;;;;;;;4.93;0.98;;;;;;;;;;3535293;40;20054;-68
2021/05/21 13:00:25;;;;;;;3.90;0.80;;;24.20;52.40;;;;;;3534692;40;20050;-69
2021/05/21 13:02:56;;;;;;;3.17;0.90;;;25.00;49.70;;;;;;3534862;40;20394;-70
2021/05/21 13:05:27;;;;;;;6.80;0.80;;;25.80;50.50;;;;;;3534286;40;20078;-69
2021/05/21 13:07:58;;;;;;;7.53;0.60;;;24.90;49.60;;;;;;3535531;40;20074;-69
2021/05/21 13:10:26;;;;;;;3.70;0.60;;;24.10;50.60;;;;;;3531744;40;20079;-67
2021/05/21 13:12:56;;;;;;;0.73;0.60;;;23.50;51.30;;;;;;3534353;40;20046;-67